Map

Track Data

SID SEASON NUMBER BASIN SUBBASIN NAME ISO_TIME NATURE LAT LON WMO_WIND WMO_PRES WMO_AGENCY TRACK_TYPE DIST2LAND LANDFALL IFLAG USA_AGENCY USA_ATCF_ID USA_LAT USA_LON USA_RECORD USA_STATUS USA_WIND USA_PRES USA_SSHS USA_R34_NE USA_R34_SE USA_R34_SW USA_R34_NW USA_R50_NE USA_R50_SE USA_R50_SW USA_R50_NW USA_R64_NE USA_R64_SE USA_R64_SW USA_R64_NW USA_POCI USA_ROCI USA_RMW USA_EYE TOKYO_LAT TOKYO_LON TOKYO_GRADE TOKYO_WIND TOKYO_PRES TOKYO_R50_DIR TOKYO_R50_LONG TOKYO_R50_SHORT TOKYO_R30_DIR TOKYO_R30_LONG TOKYO_R30_SHORT TOKYO_LAND CMA_LAT CMA_LON CMA_CAT CMA_WIND CMA_PRES HKO_LAT HKO_LON HKO_CAT HKO_WIND HKO_PRES NEWDELHI_LAT NEWDELHI_LON NEWDELHI_GRADE NEWDELHI_WIND NEWDELHI_PRES NEWDELHI_CI NEWDELHI_DP NEWDELHI_POCI REUNION_LAT REUNION_LON REUNION_TYPE REUNION_WIND REUNION_PRES REUNION_TNUM REUNION_CI REUNION_RMW REUNION_R34_NE REUNION_R34_SE REUNION_R34_SW REUNION_R34_NW REUNION_R50_NE REUNION_R50_SE REUNION_R50_SW REUNION_R50_NW REUNION_R64_NE REUNION_R64_SE REUNION_R64_SW REUNION_R64_NW BOM_LAT BOM_LON BOM_TYPE BOM_WIND BOM_PRES BOM_TNUM BOM_CI BOM_RMW BOM_R34_NE BOM_R34_SE BOM_R34_SW BOM_R34_NW BOM_R50_NE BOM_R50_SE BOM_R50_SW BOM_R50_NW BOM_R64_NE BOM_R64_SE BOM_R64_SW BOM_R64_NW BOM_ROCI BOM_POCI BOM_EYE BOM_POS_METHOD BOM_PRES_METHOD NADI_LAT NADI_LON NADI_CAT NADI_WIND NADI_PRES WELLINGTON_LAT WELLINGTON_LON WELLINGTON_WIND WELLINGTON_PRES DS824_LAT DS824_LON DS824_STAGE DS824_WIND DS824_PRES TD9636_LAT TD9636_LON TD9636_STAGE TD9636_WIND TD9636_PRES TD9635_LAT TD9635_LON TD9635_WIND TD9635_PRES TD9635_ROCI NEUMANN_LAT NEUMANN_LON NEUMANN_CLASS NEUMANN_WIND NEUMANN_PRES MLC_LAT MLC_LON MLC_CLASS MLC_WIND MLC_PRES USA_GUST BOM_GUST BOM_GUST_PER REUNION_GUST REUNION_GUST_PER USA_SEAHGT USA_SEARAD_NE USA_SEARAD_SE USA_SEARAD_SW USA_SEARAD_NW STORM_SPEED STORM_DIR
1963252N13264 1963 82 EP MM JEN-KATH 1963-09-09 00:00:00 TS 12.5000 -96.5000 45 hurdat_epa main 347 336 O________O____ hurdat_epa EP041963 12.5000 -96.5000 TS 45 0 12.5000 -96.5000 TC 45 11 280
1963252N13264 1963 82 EP MM JEN-KATH 1963-09-09 03:00:00 TS 12.5952 -97.0574 main 340 335 P________P____ EP041963 12.5952 -97.0574 TS 45 0 12.5952 -97.0574 TC 45 11 281
1963252N13264 1963 82 EP MM JEN-KATH 1963-09-09 06:00:00 TS 12.7000 -97.6000 45 hurdat_epa main 342 339 O________O____ hurdat_epa EP041963 12.7000 -97.6000 TS 45 0 12.7000 -97.6000 TC 45 11 283
1963252N13264 1963 82 EP MM JEN-KATH 1963-09-09 09:00:00 TS 12.8274 -98.1151 main 352 344 P________P____ EP041963 12.8274 -98.1151 TS 45 0 12.8274 -98.1151 TC 45 10 287
1963252N13264 1963 82 EP MM JEN-KATH 1963-09-09 12:00:00 TS 13.0000 -98.6000 45 hurdat_epa main 346 335 O________O____ hurdat_epa EP041963 13.0000 -98.6000 TS 45 0 13.0000 -98.6000 TC 45 10 295
1963252N13264 1963 82 EP MM JEN-KATH 1963-09-09 15:00:00 TS 13.2498 -99.0500 main 339 325 P________P____ EP041963 13.2498 -99.0500 TS 45 0 13.2498 -99.0500 TC 45 10 300
1963252N13264 1963 82 EP MM JEN-KATH 1963-09-09 18:00:00 TS 13.5000 -99.5000 45 hurdat_epa main 328 320 O________O____ hurdat_epa EP041963 13.5000 -99.5000 TS 45 0 13.5000 -99.5000 TC 45 10 296
1963252N13264 1963 82 EP MM JEN-KATH 1963-09-09 21:00:00 TS 13.6874 -99.9850 main 327 327 P________P____ EP041963 13.6874 -99.9850 TS 45 0 13.6874 -99.9850 TC 45 10 287
1963252N13264 1963 82 EP MM JEN-KATH 1963-09-10 00:00:00 TS 13.8000 -100.500 45 hurdat_epa main 335 335 O________O____ hurdat_epa EP041963 13.8000 -100.500 TS 45 0 13.8000 -100.500 TC 45 10 277
1963252N13264 1963 82 EP MM JEN-KATH 1963-09-10 03:00:00 TS 13.8149 -101.043 main 353 353 P________P____ EP041963 13.8149 -101.043 TS 45 0 13.8149 -101.043 TC 45 11 270
1963252N13264 1963 82 EP MM JEN-KATH 1963-09-10 06:00:00 TS 13.8000 -101.600 45 hurdat_epa main 383 383 O________O____ hurdat_epa EP041963 13.8000 -101.600 TS 45 0 13.8000 -101.600 TC 45 11 272
1963252N13264 1963 82 EP MM JEN-KATH 1963-09-10 09:00:00 TS 13.8498 -102.142 main 405 398 P________P____ EP041963 13.8498 -102.142 TS 45 0 13.8498 -102.142 TC 45 11 275
1963252N13264 1963 82 EP MM JEN-KATH 1963-09-10 12:00:00 TS 13.9000 -102.700 45 hurdat_epa main 417 417 O________O____ hurdat_epa EP041963 13.9000 -102.700 TS 45 0 13.9000 -102.700 TC 45 11 273
1963252N13264 1963 82 EP MM JEN-KATH 1963-09-10 15:00:00 TS 13.9000 -103.300 main 447 447 P________P____ EP041963 13.9000 -103.300 TS 45 0 13.9000 -103.300 TC 45 12 270
1963252N13264 1963 82 EP MM JEN-KATH 1963-09-10 18:00:00 TS 13.9000 -103.900 45 hurdat_epa main 479 479 O________O____ hurdat_epa EP041963 13.9000 -103.900 TS 45 0 13.9000 -103.900 TC 45 11 271
1963252N13264 1963 82 EP MM JEN-KATH 1963-09-10 21:00:00 TS 13.9274 -104.465 main 500 496 P________P____ EP041963 13.9274 -104.465 TS 45 0 13.9274 -104.465 TC 45 11 275
1963252N13264 1963 82 EP MM JEN-KATH 1963-09-11 00:00:00 TS 14.0000 -105.000 45 hurdat_epa main 507 507 O________O____ hurdat_epa EP041963 14.0000 -105.000 TS 45 0 14.0000 -105.000 TC 45 10 281
1963252N13264 1963 82 EP MM JEN-KATH 1963-09-11 03:00:00 TS 14.1273 -105.508 main 516 510 P________P____ EP041963 14.1273 -105.508 TS 45 0 14.1273 -105.508 TC 45 10 287
1963252N13264 1963 82 EP MM JEN-KATH 1963-09-11 06:00:00 TS 14.3000 -106.000 45 hurdat_epa main 521 517 O________O____ hurdat_epa EP041963 14.3000 -106.000 TS 45 0 14.3000 -106.000 TC 45 11 291
1963252N13264 1963 82 EP MM JEN-KATH 1963-09-11 09:00:00 TS 14.5000 -106.522 main 532 532 P________P____ EP041963 14.5000 -106.522 TS 45 0 14.5000 -106.522 TC 45 10 292
1963252N13264 1963 82 EP MM JEN-KATH 1963-09-11 12:00:00 TS 14.7000 -107.000 45 hurdat_epa main 549 548 O________O____ hurdat_epa EP041963 14.7000 -107.000 TS 45 0 14.7000 -107.000 TC 45 9 294
1963252N13264 1963 82 EP MM JEN-KATH 1963-09-11 15:00:00 TS 14.8573 -107.358 main 554 554 P________P____ EP041963 14.8573 -107.358 TS 45 0 14.8573 -107.358 TC 45 7 294
1963252N13264 1963 82 EP MM JEN-KATH 1963-09-11 18:00:00 TS 15.0000 -107.700 45 hurdat_epa main 562 562 O________O____ hurdat_epa EP041963 15.0000 -107.700 TS 45 0 15.0000 -107.700 TC 45 8 290
1963252N13264 1963 82 EP MM JEN-KATH 1963-09-11 21:00:00 TS 15.1273 -108.113 main 577 575 P________P____ EP041963 15.1273 -108.113 TS 45 0 15.1273 -108.113 TC 45 9 289
1963252N13264 1963 82 EP MM JEN-KATH 1963-09-12 00:00:00 TS 15.3000 -108.600 45 hurdat_epa main 594 593 O________O____ hurdat_epa EP041963 15.3000 -108.600 TS 45 0 15.3000 -108.600 TC 45 11 293
1963252N13264 1963 82 EP MM JEN-KATH 1963-09-12 03:00:00 TS 15.5699 -109.170 main 615 615 P________P____ EP041963 15.5699 -109.170 TS 45 0 15.5699 -109.170 TC 45 13 297
1963252N13264 1963 82 EP MM JEN-KATH 1963-09-12 06:00:00 TS 15.9000 -109.800 45 hurdat_epa main 638 638 O________O____ hurdat_epa EP041963 15.9000 -109.800 TS 45 0 15.9000 -109.800 TC 45 14 299
1963252N13264 1963 82 EP MM JEN-KATH 1963-09-12 09:00:00 TS 16.2574 -110.450 main 659 659 P________P____ EP041963 16.2574 -110.450 TS 45 0 16.2574 -110.450 TC 45 14 299
1963252N13264 1963 82 EP MM JEN-KATH 1963-09-12 12:00:00 TS 16.5941 -111.100 45 hurdat_epa main 702 700 O________OO___ hurdat_epa EP041963 16.6000 -111.100 TS 45 0 16.6000 -111.100 TC 45 16.5000 -111.100 2 13 296
1963252N13264 1963 82 EP MM JEN-KATH 1963-09-12 15:00:00 TS 16.8375 -111.693 main 705 692 P________PP___ EP041963 16.8648 -111.708 TS 45 0 16.8648 -111.708 TC 45 16.6196 -111.573 2 12 292
1963252N13264 1963 82 EP MM JEN-KATH 1963-09-12 18:00:00 TS 17.0480 -112.260 45 hurdat_epa main 702 688 O________OP___ hurdat_epa EP041963 17.1000 -112.300 TS 45 0 17.1000 -112.300 TC 45 16.7710 -112.046 2 12 292
1963252N13264 1963 82 EP MM JEN-KATH 1963-09-12 21:00:00 TS 17.2893 -112.836 main 691 690 P________PP___ EP041963 17.3649 -112.915 TS 45 0 17.3649 -112.915 TC 45 16.9868 -112.522 2 12 294
1963252N13264 1963 82 EP MM JEN-KATH 1963-09-13 00:00:00 TS 17.5400 -113.400 45 hurdat_epa main 700 690 O________OO___ hurdat_epa EP041963 17.6000 -113.500 TS 45 0 17.6000 -113.500 TC 45 17.3000 -113.000 2 11 295
1963252N13264 1963 82 EP MM JEN-KATH 1963-09-13 03:00:00 TS 17.7689 -113.921 main 700 700 P________PP___ EP041963 17.7799 -114.030 TS 45 0 17.7799 -114.030 TC 45 17.7249 -113.483 2 10 294
1963252N13264 1963 82 EP MM JEN-KATH 1963-09-13 06:00:00 TS 17.9604 -114.395 45 hurdat_epa main 714 714 O________OP___ hurdat_epa EP041963 17.9000 -114.500 TS 45 0 17.9000 -114.500 TC 45 18.2019 -113.975 2 9 291
1963252N13264 1963 82 EP MM JEN-KATH 1963-09-13 09:00:00 TS 18.1085 -114.840 main 733 733 P________PP___ EP041963 17.9724 -114.930 TS 45 0 17.9724 -114.930 TC 45 18.6529 -114.480 2 8 287
1963252N13264 1963 82 EP MM JEN-KATH 1963-09-13 12:00:00 TS 18.2000 -115.240 45 hurdat_epa main 754 754 O________OO___ hurdat_epa EP041963 18.0000 -115.300 TS 45 0 18.0000 -115.300 TC 45 19.0000 -115.000 2 7 281
1963252N13264 1963 82 EP MM JEN-KATH 1963-09-13 15:00:00 TS 18.2457 -115.595 main 784 784 P________PP___ EP041963 18.0224 -115.615 TS 45 0 18.0224 -115.615 TC 45 19.1392 -115.517 2 7 273
1963252N13264 1963 82 EP MM JEN-KATH 1963-09-13 18:00:00 TS 18.2338 -115.930 45 hurdat_epa main 808 808 O________OP___ hurdat_epa EP041963 18.0000 -115.900 TS 45 0 18.0000 -115.900 TC 45 19.1688 -116.050 2 7 264
1963252N13264 1963 82 EP MM JEN-KATH 1963-09-13 21:00:00 TS 18.1718 -116.281 main 840 840 P________PP___ EP041963 17.9300 -116.200 TS 45 0 17.9300 -116.200 TC 45 19.1391 -116.607 2 7 256
1963252N13264 1963 82 EP MM JEN-KATH 1963-09-14 00:00:00 TS 18.0600 -116.640 45 hurdat_epa main 871 871 O________OO___ hurdat_epa EP041963 17.8000 -116.500 TS 45 0 17.8000 -116.500 TC 45 19.1000 -117.200 2 7 251
1963252N13264 1963 82 EP MM JEN-KATH 1963-09-14 03:00:00 TS 17.9296 -117.015 main 913 913 P________PP___ EP041963 17.6225 -116.800 TS 45 0 17.6225 -116.800 TC 45 19.1582 -117.875 2 8 248
1963252N13264 1963 82 EP MM JEN-KATH 1963-09-14 06:00:00 TS 17.7622 -117.396 45 hurdat_epa main 946 946 O________OP___ hurdat_epa EP041963 17.4000 -117.100 TS 45 0 17.4000 -117.100 TC 45 19.2111 -118.579 2 8 244
1963252N13264 1963 82 EP MM JEN-KATH 1963-09-14 09:00:00 TS 17.5666 -117.780 main 989 989 P________PP___ EP041963 17.1500 -117.408 TS 45 0 17.1500 -117.408 TC 45 19.2333 -119.269 2 8 240
1963252N13264 1963 82 EP MM JEN-KATH 1963-09-14 12:00:00 TS 17.3600 -118.140 45 hurdat_epa main 1026 1026 O________OO___ hurdat_epa EP041963 16.9000 -117.700 TS 45 0 16.9000 -117.700 TC 45 19.2000 -119.900 2 8 239
1963252N13264 1963 82 EP MM JEN-KATH 1963-09-14 15:00:00 TS 17.1728 -118.454 main 1069 1069 P________PP___ EP041963 16.6924 -117.957 TS 45 0 16.6924 -117.957 TC 45 19.0945 -120.441 2 7 224
1963252N13264 1963 82 EP MM JEN-KATH 1963-09-14 18:00:00 TS 16.8836 -118.627 45 hurdat_epa main 1102 1102 O________OP___ hurdat_epa EP041963 16.5000 -118.200 TS 45 0 16.5000 -118.200 TC 45 18.9295 -120.904 2 7 206
1963252N13264 1963 82 EP MM JEN-KATH 1963-09-14 21:00:00 TS 16.5494 -118.768 main 1151 1151 P________PP___ EP041963 16.2775 -118.450 TS 45 0 16.2775 -118.450 TC 45 18.7248 -121.315 2 7 201
1963252N13264 1963 82 EP MM JEN-KATH 1963-09-15 00:00:00 TS 16.2412 -118.876 45 hurdat_epa main 1184 1184 O________OO___ hurdat_epa EP041963 16.1000 -118.700 TS 45 0 16.1000 -118.700 TC 45 18.5000 -121.700 2 6 198
1963252N13264 1963 82 EP MM JEN-KATH 1963-09-15 03:00:00 TS 15.9975 -118.950 main 1209 1209 P________P____ EP041963 15.9975 -118.950 TS 45 0 15.9975 -118.950 TC 45 2 4 232
1963252N13264 1963 82 EP MM JEN-KATH 1963-09-15 06:00:00 TS 16.0000 -119.200 45 hurdat_epa main 1221 1221 O________O____ hurdat_epa EP041963 16.0000 -119.200 TS 45 0 16.0000 -119.200 TC 45 2 5 282
1963252N13264 1963 82 EP MM JEN-KATH 1963-09-15 09:00:00 TS 16.1050 -119.457 main 1232 1221 P________P____ EP041963 16.1050 -119.457 TS 45 0 16.1050 -119.457 TC 45 2 6 302
1963252N13264 1963 82 EP MM JEN-KATH 1963-09-15 12:00:00 TS 16.3000 -119.700 45 hurdat_epa main 1227 1223 O________O____ hurdat_epa EP041963 16.3000 -119.700 TS 45 0 16.3000 -119.700 TC 45 6 312
1963252N13264 1963 82 EP MM JEN-KATH 1963-09-15 15:00:00 TS 16.4975 -119.915 main 1223 1212 P________P____ EP041963 16.4975 -119.915 TS 45 0 16.4975 -119.915 TC 45 6 322
1963252N13264 1963 82 EP MM JEN-KATH 1963-09-15 18:00:00 TS 16.8000 -120.100 45 hurdat_epa main 1212 1187 O________O____ hurdat_epa EP041963 16.8000 -120.100 TS 45 0 16.8000 -120.100 TC 45 8 335
1963252N13264 1963 82 EP MM JEN-KATH 1963-09-15 21:00:00 TS 17.2175 -120.258 main 1194 1154 P________P____ EP041963 17.2175 -120.258 TS 45 0 17.2175 -120.258 TC 45 10 344
1963252N13264 1963 82 EP MM JEN-KATH 1963-09-16 00:00:00 TS 17.8000 -120.400 45 hurdat_epa main 1154 1109 O________O____ hurdat_epa EP041963 17.8000 -120.400 TS 45 0 17.8000 -120.400 TC 45 14 349
1963252N13264 1963 82 EP MM JEN-KATH 1963-09-16 03:00:00 TS 18.5550 -120.543 main 1101 1062 P________P____ EP041963 18.5550 -120.543 TS 45 0 18.5550 -120.543 TC 45 16 350
1963252N13264 1963 82 EP MM JEN-KATH 1963-09-16 06:00:00 TS 19.4000 -120.700 45 hurdat_epa main 1062 1024 O________O____ hurdat_epa EP041963 19.4000 -120.700 TS 45 0 19.4000 -120.700 TC 45 17 347
1963252N13264 1963 82 EP MM JEN-KATH 1963-09-16 09:00:00 TS 20.2076 -120.937 main 1024 970 P________P____ EP041963 20.2076 -120.937 TS 45 0 20.2076 -120.937 TC 45 17 347
1963252N13264 1963 82 EP MM JEN-KATH 1963-09-16 12:00:00 TS 21.0000 -121.100 45 hurdat_epa main 970 909 O________O____ hurdat_epa EP041963 21.0000 -121.100 TS 45 0 21.0000 -121.100 TC 45 16 355
1963252N13264 1963 82 EP MM JEN-KATH 1963-09-16 15:00:00 TS 21.7574 -121.075 main 901 830 P________P____ EP041963 21.7574 -121.075 TS 45 0 21.7574 -121.075 TC 45 15 7
1963252N13264 1963 82 EP MM JEN-KATH 1963-09-16 18:00:00 TS 22.5000 -120.900 45 hurdat_epa main 830 753 O________O____ hurdat_epa EP041963 22.5000 -120.900 TS 45 0 22.5000 -120.900 TC 45 16 16
1963252N13264 1963 82 EP MM JEN-KATH 1963-09-16 21:00:00 TS 23.2502 -120.608 main 746 671 P________P____ EP041963 23.2502 -120.608 TS 45 0 23.2502 -120.608 TC 45 16 20
1963252N13264 1963 82 EP MM JEN-KATH 1963-09-17 00:00:00 TS 24.0000 -120.300 45 hurdat_epa main 671 608 O________O____ hurdat_epa EP041963 24.0000 -120.300 TS 45 0 24.0000 -120.300 TC 45 16 17
1963252N13264 1963 82 EP MM JEN-KATH 1963-09-17 03:00:00 TS 24.7499 -120.120 main 608 554 P________P____ EP041963 24.7499 -120.120 TS 45 0 24.7499 -120.120 TC 45 15 10
1963252N13264 1963 82 EP MM JEN-KATH 1963-09-17 06:00:00 TS 25.5000 -120.000 45 hurdat_epa main 554 522 O________O____ hurdat_epa EP041963 25.5000 -120.000 TS 45 0 25.5000 -120.000 TC 45 15 4
1963252N13264 1963 82 EP MM JEN-KATH 1963-09-17 09:00:00 TS 26.2492 -119.995 main 522 479 P________P____ EP041963 26.2492 -119.995 TS 45 0 26.2492 -119.995 TC 45 15 7
1963252N13264 1963 82 EP MM JEN-KATH 1963-09-17 12:00:00 TS 27.0000 -119.800 45 hurdat_epa main 479 412 O________O____ hurdat_epa EP041963 27.0000 -119.800 TS 45 0 27.0000 -119.800 TC 45 17 27
1963252N13264 1963 82 EP MM JEN-KATH 1963-09-17 15:00:00 TS 27.7505 -119.121 main 397 288 P________P____ EP041963 27.7505 -119.121 TS 45 0 27.7505 -119.121 TC 45 21 43
1963252N13264 1963 82 EP MM JEN-KATH 1963-09-17 18:00:00 TS 28.5000 -118.200 45 hurdat_epa main 280 156 O________O____ hurdat_epa EP041963 28.5000 -118.200 TS 45 0 28.5000 -118.200 TC 45 23 48
1963252N13264 1963 82 EP MM JEN-KATH 1963-09-17 21:00:00 TS 29.2588 -117.197 main 150 57 P________P____ EP041963 29.2588 -117.197 TS 45 0 29.2588 -117.197 TC 45 22 46
1963252N13264 1963 82 EP MM JEN-KATH 1963-09-18 00:00:00 TS 30.0000 -116.400 45 hurdat_epa main 57 9 O________O____ hurdat_epa EP041963 30.0000 -116.400 TS 45 0 30.0000 -116.400 TC 45 17 33
1963252N13264 1963 82 EP MM JEN-KATH 1963-09-18 03:00:00 TS 30.7136 -116.089 main 9 0 P________P____ EP041963 30.7136 -116.089 TS 35 0 30.7136 -116.089 TC 35 14 7
1963252N13264 1963 82 EP MM JEN-KATH 1963-09-18 06:00:00 MX 31.4000 -116.200 25 hurdat_epa main 0 0 O________O____ hurdat_epa EP041963 31.4000 -116.200 TD 25 -1 31.4000 -116.200 25 14 341
1963252N13264 1963 82 EP MM JEN-KATH 1963-09-18 09:00:00 MX 32.0588 -116.618 main 0 0 P________P____ EP041963 32.0588 -116.618 TD 25 -1 32.0588 -116.618 25 16 327
1963252N13264 1963 82 EP MM JEN-KATH 1963-09-18 12:00:00 MX 32.7000 -117.200 25 hurdat_epa main 0 O________O____ hurdat_epa EP041963 32.7000 -117.200 TD 25 -1 32.7000 -117.200 25 16 323

About IBTrACS Database

This database is a web-friendly format of International Best Track Archive for Climate Stewardship (IBTrACS), a global best track data archive curated by NOAA dating back to 1842.

Updated: 2021-10-08